Capitol Logistics 462


KEWR
Newark Liberty International Airport
Newark, New Jersey, US
KRFD
Chicago/Rockford International Airport
Rockford, Illinois, US

Activity Log

Date Flight Route Aircraft Duration
01/15/2020 CPX462 COATE Q436 RAAKK Q438 BERYS FNT J94 OBK V100 RFD B738 2h 50m
10/28/2019 CPX462 COATE Q436 RAAKK Q438 BERYS FNT J94 OBK V100 RFD B738 2h 16m
07/21/2019 CPX462 KEWR ZIMMZ Q42 MIKYG Q480 AIR APE J30 JOT QUOTE KRFD B738 2h 00m

Route Details

Aircraft Information
Primary: Boeing 737-800BCF
Backup: Not Available
Route Data
Distance: 913nm
Sched. Duration: 1h 54m
Avg. Duration: 2h 22m (+69m)
Times Flown: 3
Recm'd Route: COATE Q436 RAAKK Q438 BERYS FNT J94 OBK V100 RFD
Planned Altitude: 38,000ft
Origin Wx: KEWR 270151Z 10006KT 8SM -DZ BKN007 OVC012 07/06 A2977 RMK AO2 DZB50 SLP081 P0000 T00720056
Dest. Wx: KRFD 270154Z 32008KT 10SM OVC046 M02/M11 A3014 RMK AO2 SLP218 T10221106
Notes:

Financial History
Total Freight: 38,544lbs
Average Load: 12,848lbs/flt
Fuel Used: 32,495lbs
Avg. Fuel Used: 10,832lbs/flt
Fuel Expense: $39,969
Avg. Fuel Expense: $13,323
Avg. Fuel Cost: $1.23/lbs
Total Gross Income: $51,232
Pilot Pay: $527
Total Expenses: $5,689
Total Revenue: $4,394
Average Revenue: $17,077.28